Terminal Aerodrome Forecast
Issued by NWS Jackson, MS

Home | Current Version | Previous Version | Text Only | Print | Product List | Glossary On
Versions: 1 2 3 4 5 6 7 8 9 10 11 12 13 14 15 16
000
FTUS44 KJAN 221700
TAFMEI
TAF
KMEI 221730Z 2218/2318 16004KT 5SM BR VCSH OVC003
     FM230700 19004KT 1 1/2SM BR OVC003
     FM230900 19003KT 1/2SM FG OVC001
     FM231500 16005KT 2SM BR VCTS SCT003 OVC015CB=

USA.gov is the U.S. government's official web portal to all federal, state and local government web resources and services.